Viburnum, Missouri
Current Conditions -  °F | °C
As of 8:35 AM on Sunday 23 Nov 2014 (Local Time) from KFAM Reporting Station
Overcast Overcast  
Wind Chill: 54°   Ceiling: 700
Heat Index: 54°   Visibility: 8mi
Dew Point: 52°   Wind: 13mph
Humidity: 94%   Direction: 100°E
Pressure: 29.7"   Gusts: 18mph
Location:  37.72°N, 91.14°W
Report Text: KFAM 231435Z AUTO 10011G16KT 8SM OVC007 12/11 A2970 RMK AO1 P0001
Loading
Personal Weather Stations






























Interactive Weather Map New forecast layout! Learn more

10-Day Weather Forecast

Advertisements
Track Severe Weather on mobile